sensor_id;sensor_type;location;lat;lon;timestamp;temperature;humidity
17053;DHT22;8643;48.824;11.422;2022-08-19T00:01:57;19.50;99.90
17053;DHT22;8643;48.824;11.422;2022-08-19T00:04:30;19.50;99.90
17053;DHT22;8643;48.824;11.422;2022-08-19T00:07:03;19.50;99.90
17053;DHT22;8643;48.824;11.422;2022-08-19T00:09:33;19.40;99.90
17053;DHT22;8643;48.824;11.422;2022-08-19T00:12:01;19.50;99.90
17053;DHT22;8643;48.824;11.422;2022-08-19T00:14:30;19.50;99.90
17053;DHT22;8643;48.824;11.422;2022-08-19T00:17:00;19.50;99.90
17053;DHT22;8643;48.824;11.422;2022-08-19T00:19:31;19.50;99.90
17053;DHT22;8643;48.824;11.422;2022-08-19T00:21:59;19.50;99.90
17053;DHT22;8643;48.824;11.422;2022-08-19T00:24:29;19.40;99.90
17053;DHT22;8643;48.824;11.422;2022-08-19T00:26:58;20.40;99.90
17053;DHT22;8643;48.824;11.422;2022-08-19T00:29:48;19.30;99.90
17053;DHT22;8643;48.824;11.422;2022-08-19T00:32:19;19.30;99.90
17053;DHT22;8643;48.824;11.422;2022-08-19T00:34:51;19.30;99.90
17053;DHT22;8643;48.824;11.422;2022-08-19T00:37:21;19.20;99.90
17053;DHT22;8643;48.824;11.422;2022-08-19T00:39:50;19.20;99.90
17053;DHT22;8643;48.824;11.422;2022-08-19T00:42:20;19.10;99.90
17053;DHT22;8643;48.824;11.422;2022-08-19T00:47:18;19.00;99.90
17053;DHT22;8643;48.824;11.422;2022-08-19T00:49:49;19.00;99.90
17053;DHT22;8643;48.824;11.422;2022-08-19T00:52:25;19.00;99.90
17053;DHT22;8643;48.824;11.422;2022-08-19T00:54:58;19.70;99.90
17053;DHT22;8643;48.824;11.422;2022-08-19T00:57:31;19.10;99.90
17053;DHT22;8643;48.824;11.422;2022-08-19T01:00:06;19.10;99.90
17053;DHT22;8643;48.824;11.422;2022-08-19T01:02:40;19.20;99.90
17053;DHT22;8643;48.824;11.422;2022-08-19T01:05:13;19.30;99.90
17053;DHT22;8643;48.824;11.422;2022-08-19T01:07:45;18.20;99.90
17053;DHT22;8643;48.824;11.422;2022-08-19T01:10:18;19.40;99.90
17053;DHT22;8643;48.824;11.422;2022-08-19T01:12:51;19.40;99.90
17053;DHT22;8643;48.824;11.422;2022-08-19T01:15:25;19.40;99.90
17053;DHT22;8643;48.824;11.422;2022-08-19T01:18:00;19.40;99.90
17053;DHT22;8643;48.824;11.422;2022-08-19T01:20:33;19.40;99.90
17053;DHT22;8643;48.824;11.422;2022-08-19T01:23:03;19.40;99.90
17053;DHT22;8643;48.824;11.422;2022-08-19T01:25:35;19.40;99.90
17053;DHT22;8643;48.824;11.422;2022-08-19T01:28:17;19.40;99.90
17053;DHT22;8643;48.824;11.422;2022-08-19T01:31:08;19.40;99.90
17053;DHT22;8643;48.824;11.422;2022-08-19T01:33:54;17.00;99.90
17053;DHT22;8643;48.824;11.422;2022-08-19T01:36:27;19.50;99.90
17053;DHT22;8643;48.824;11.422;2022-08-19T01:38:59;19.50;99.90
17053;DHT22;8643;48.824;11.422;2022-08-19T01:41:28;19.50;99.90
17053;DHT22;8643;48.824;11.422;2022-08-19T01:43:56;19.30;99.90
17053;DHT22;8643;48.824;11.422;2022-08-19T01:46:44;19.30;99.90
17053;DHT22;8643;48.824;11.422;2022-08-19T01:49:15;19.30;99.90
17053;DHT22;8643;48.824;11.422;2022-08-19T01:51:45;19.30;99.90
17053;DHT22;8643;48.824;11.422;2022-08-19T01:54:17;19.30;99.90
17053;DHT22;8643;48.824;11.422;2022-08-19T01:56:55;19.20;99.90
17053;DHT22;8643;48.824;11.422;2022-08-19T01:59:29;19.10;99.90
17053;DHT22;8643;48.824;11.422;2022-08-19T02:01:59;19.10;99.90
17053;DHT22;8643;48.824;11.422;2022-08-19T02:04:27;19.10;99.90
17053;DHT22;8643;48.824;11.422;2022-08-19T02:06:57;19.00;99.90
17053;DHT22;8643;48.824;11.422;2022-08-19T02:09:27;19.00;99.90
17053;DHT22;8643;48.824;11.422;2022-08-19T02:11:55;19.00;99.90
17053;DHT22;8643;48.824;11.422;2022-08-19T02:14:24;19.00;99.90
17053;DHT22;8643;48.824;11.422;2022-08-19T02:16:52;19.00;99.90
17053;DHT22;8643;48.824;11.422;2022-08-19T02:19:20;19.00;99.90
17053;DHT22;8643;48.824;11.422;2022-08-19T02:24:17;18.90;99.90
17053;DHT22;8643;48.824;11.422;2022-08-19T02:26:47;18.90;99.90
17053;DHT22;8643;48.824;11.422;2022-08-19T02:29:15;19.00;99.90
17053;DHT22;8643;48.824;11.422;2022-08-19T02:31:43;19.00;99.90
17053;DHT22;8643;48.824;11.422;2022-08-19T02:34:12;19.00;99.90
17053;DHT22;8643;48.824;11.422;2022-08-19T02:36:40;19.10;99.90
17053;DHT22;8643;48.824;11.422;2022-08-19T02:39:09;19.10;99.90
17053;DHT22;8643;48.824;11.422;2022-08-19T02:41:36;19.10;99.90
17053;DHT22;8643;48.824;11.422;2022-08-19T02:44:05;19.10;99.90
17053;DHT22;8643;48.824;11.422;2022-08-19T02:46:54;19.00;99.90
17053;DHT22;8643;48.824;11.422;2022-08-19T02:49:22;19.00;99.90
17053;DHT22;8643;48.824;11.422;2022-08-19T02:51:50;19.00;99.90
17053;DHT22;8643;48.824;11.422;2022-08-19T02:54:19;19.00;99.90
17053;DHT22;8643;48.824;11.422;2022-08-19T02:56:48;19.00;99.90
17053;DHT22;8643;48.824;11.422;2022-08-19T02:59:18;19.00;99.90
17053;DHT22;8643;48.824;11.422;2022-08-19T03:01:48;18.60;99.90
17053;DHT22;8643;48.824;11.422;2022-08-19T03:04:17;19.00;99.90
17053;DHT22;8643;48.824;11.422;2022-08-19T03:06:48;18.90;99.90
17053;DHT22;8643;48.824;11.422;2022-08-19T03:09:17;18.90;99.90
17053;DHT22;8643;48.824;11.422;2022-08-19T03:11:47;18.90;99.90
17053;DHT22;8643;48.824;11.422;2022-08-19T03:14:20;18.90;99.90
17053;DHT22;8643;48.824;11.422;2022-08-19T03:16:50;18.80;99.90
17053;DHT22;8643;48.824;11.422;2022-08-19T03:19:20;18.80;99.90
17053;DHT22;8643;48.824;11.422;2022-08-19T03:21:49;18.80;99.90
17053;DHT22;8643;48.824;11.422;2022-08-19T03:24:18;18.70;99.90
17053;DHT22;8643;48.824;11.422;2022-08-19T03:26:49;17.80;99.90
17053;DHT22;8643;48.824;11.422;2022-08-19T03:29:20;18.70;99.90
17053;DHT22;8643;48.824;11.422;2022-08-19T03:31:58;18.70;99.90
17053;DHT22;8643;48.824;11.422;2022-08-19T03:34:29;18.80;99.90
17053;DHT22;8643;48.824;11.422;2022-08-19T03:37:03;18.20;99.90
17053;DHT22;8643;48.824;11.422;2022-08-19T03:39:33;18.80;99.90
17053;DHT22;8643;48.824;11.422;2022-08-19T03:42:04;18.80;99.90
17053;DHT22;8643;48.824;11.422;2022-08-19T03:44:54;18.80;99.90
17053;DHT22;8643;48.824;11.422;2022-08-19T03:47:22;18.90;99.90
17053;DHT22;8643;48.824;11.422;2022-08-19T03:49:50;20.50;99.90
17053;DHT22;8643;48.824;11.422;2022-08-19T03:52:18;18.80;99.90
17053;DHT22;8643;48.824;11.422;2022-08-19T03:54:47;18.80;99.90
17053;DHT22;8643;48.824;11.422;2022-08-19T03:57:15;18.80;99.90
17053;DHT22;8643;48.824;11.422;2022-08-19T03:59:43;18.80;99.90
17053;DHT22;8643;48.824;11.422;2022-08-19T04:02:13;18.70;99.90
17053;DHT22;8643;48.824;11.422;2022-08-19T04:04:43;18.70;99.90
17053;DHT22;8643;48.824;11.422;2022-08-19T04:07:13;18.80;99.90
17053;DHT22;8643;48.824;11.422;2022-08-19T04:09:43;18.80;99.90
17053;DHT22;8643;48.824;11.422;2022-08-19T04:12:11;18.80;99.90
17053;DHT22;8643;48.824;11.422;2022-08-19T04:14:40;18.80;99.90
17053;DHT22;8643;48.824;11.422;2022-08-19T04:17:08;18.80;99.90
17053;DHT22;8643;48.824;11.422;2022-08-19T04:19:38;18.80;99.90
17053;DHT22;8643;48.824;11.422;2022-08-19T04:22:06;18.80;99.90
17053;DHT22;8643;48.824;11.422;2022-08-19T04:24:35;18.80;99.90
17053;DHT22;8643;48.824;11.422;2022-08-19T04:27:04;18.90;99.90
17053;DHT22;8643;48.824;11.422;2022-08-19T04:29:33;18.90;99.90
17053;DHT22;8643;48.824;11.422;2022-08-19T04:32:02;18.90;99.90
17053;DHT22;8643;48.824;11.422;2022-08-19T04:34:35;18.80;99.90
17053;DHT22;8643;48.824;11.422;2022-08-19T04:37:26;18.80;99.90
17053;DHT22;8643;48.824;11.422;2022-08-19T04:40:04;18.80;99.90
17053;DHT22;8643;48.824;11.422;2022-08-19T04:42:51;18.60;99.90
17053;DHT22;8643;48.824;11.422;2022-08-19T04:45:20;18.70;99.90
17053;DHT22;8643;48.824;11.422;2022-08-19T04:47:49;18.80;99.90
17053;DHT22;8643;48.824;11.422;2022-08-19T04:50:40;18.70;99.90
17053;DHT22;8643;48.824;11.422;2022-08-19T04:53:11;18.70;99.90
17053;DHT22;8643;48.824;11.422;2022-08-19T04:55:40;18.70;99.90
17053;DHT22;8643;48.824;11.422;2022-08-19T04:58:09;18.80;99.90
17053;DHT22;8643;48.824;11.422;2022-08-19T05:00:38;18.80;99.90
17053;DHT22;8643;48.824;11.422;2022-08-19T05:03:07;18.80;99.90
17053;DHT22;8643;48.824;11.422;2022-08-19T05:05:39;18.80;99.90
17053;DHT22;8643;48.824;11.422;2022-08-19T05:08:13;18.80;99.90
17053;DHT22;8643;48.824;11.422;2022-08-19T05:10:57;18.90;99.90
17053;DHT22;8643;48.824;11.422;2022-08-19T05:13:26;18.90;99.90
17053;DHT22;8643;48.824;11.422;2022-08-19T05:15:55;19.00;99.90
17053;DHT22;8643;48.824;11.422;2022-08-19T05:18:26;19.10;99.90
17053;DHT22;8643;48.824;11.422;2022-08-19T05:21:15;19.20;99.90
17053;DHT22;8643;48.824;11.422;2022-08-19T05:24:05;19.20;99.90
17053;DHT22;8643;48.824;11.422;2022-08-19T05:26:35;19.10;99.90
17053;DHT22;8643;48.824;11.422;2022-08-19T05:29:04;19.10;99.90
17053;DHT22;8643;48.824;11.422;2022-08-19T05:31:36;19.10;99.90
17053;DHT22;8643;48.824;11.422;2022-08-19T05:34:07;19.10;99.90
17053;DHT22;8643;48.824;11.422;2022-08-19T05:36:46;19.10;99.90
17053;DHT22;8643;48.824;11.422;2022-08-19T05:39:18;19.20;99.90
17053;DHT22;8643;48.824;11.422;2022-08-19T05:41:50;19.10;99.90
17053;DHT22;8643;48.824;11.422;2022-08-19T05:44:20;19.10;99.90
17053;DHT22;8643;48.824;11.422;2022-08-19T05:46:49;19.20;99.90
17053;DHT22;8643;48.824;11.422;2022-08-19T05:49:21;19.20;99.90
17053;DHT22;8643;48.824;11.422;2022-08-19T05:51:51;19.30;99.90
17053;DHT22;8643;48.824;11.422;2022-08-19T05:54:23;19.10;99.90
17053;DHT22;8643;48.824;11.422;2022-08-19T05:56:53;19.20;99.90
17053;DHT22;8643;48.824;11.422;2022-08-19T05:59:22;19.20;99.90
17053;DHT22;8643;48.824;11.422;2022-08-19T06:01:52;19.20;99.90
17053;DHT22;8643;48.824;11.422;2022-08-19T06:04:23;19.20;99.90
17053;DHT22;8643;48.824;11.422;2022-08-19T06:06:53;19.20;99.90
17053;DHT22;8643;48.824;11.422;2022-08-19T06:09:24;19.20;99.90
17053;DHT22;8643;48.824;11.422;2022-08-19T06:11:54;19.20;99.90
17053;DHT22;8643;48.824;11.422;2022-08-19T06:14:28;19.30;99.90
17053;DHT22;8643;48.824;11.422;2022-08-19T06:17:06;19.20;99.90
17053;DHT22;8643;48.824;11.422;2022-08-19T06:19:34;19.20;99.90
17053;DHT22;8643;48.824;11.422;2022-08-19T06:22:07;20.30;99.90
17053;DHT22;8643;48.824;11.422;2022-08-19T06:24:39;19.20;99.90
17053;DHT22;8643;48.824;11.422;2022-08-19T06:27:08;19.20;99.90
17053;DHT22;8643;48.824;11.422;2022-08-19T06:29:36;19.20;99.90
17053;DHT22;8643;48.824;11.422;2022-08-19T06:32:06;19.20;99.90
17053;DHT22;8643;48.824;11.422;2022-08-19T06:34:34;19.20;99.90
17053;DHT22;8643;48.824;11.422;2022-08-19T06:37:03;18.90;99.90
17053;DHT22;8643;48.824;11.422;2022-08-19T06:39:35;19.20;99.90
17053;DHT22;8643;48.824;11.422;2022-08-19T06:42:07;19.20;99.90
17053;DHT22;8643;48.824;11.422;2022-08-19T06:44:40;19.20;99.90
17053;DHT22;8643;48.824;11.422;2022-08-19T06:47:17;19.30;99.90
17053;DHT22;8643;48.824;11.422;2022-08-19T06:49:53;19.40;99.90
17053;DHT22;8643;48.824;11.422;2022-08-19T06:52:33;19.30;99.90
17053;DHT22;8643;48.824;11.422;2022-08-19T06:55:05;19.10;99.90
17053;DHT22;8643;48.824;11.422;2022-08-19T06:57:35;19.30;99.90
17053;DHT22;8643;48.824;11.422;2022-08-19T07:00:04;19.30;99.90
17053;DHT22;8643;48.824;11.422;2022-08-19T07:02:39;19.40;99.90
17053;DHT22;8643;48.824;11.422;2022-08-19T07:05:14;19.40;99.90
17053;DHT22;8643;48.824;11.422;2022-08-19T07:07:42;19.30;99.90
17053;DHT22;8643;48.824;11.422;2022-08-19T07:10:13;19.40;99.90
17053;DHT22;8643;48.824;11.422;2022-08-19T07:12:44;19.50;99.90
17053;DHT22;8643;48.824;11.422;2022-08-19T07:15:14;19.50;99.90
17053;DHT22;8643;48.824;11.422;2022-08-19T07:17:44;19.50;99.90
17053;DHT22;8643;48.824;11.422;2022-08-19T07:20:18;19.60;99.90
17053;DHT22;8643;48.824;11.422;2022-08-19T07:22:54;19.60;99.90
17053;DHT22;8643;48.824;11.422;2022-08-19T07:25:22;19.60;99.90
17053;DHT22;8643;48.824;11.422;2022-08-19T07:28:00;19.60;99.90
17053;DHT22;8643;48.824;11.422;2022-08-19T07:30:28;19.50;99.90
17053;DHT22;8643;48.824;11.422;2022-08-19T07:32:57;19.50;99.90
17053;DHT22;8643;48.824;11.422;2022-08-19T07:35:29;19.50;99.90
17053;DHT22;8643;48.824;11.422;2022-08-19T07:37:59;19.40;99.90
17053;DHT22;8643;48.824;11.422;2022-08-19T07:40:30;19.40;99.90
17053;DHT22;8643;48.824;11.422;2022-08-19T07:43:00;19.50;99.90
17053;DHT22;8643;48.824;11.422;2022-08-19T07:45:28;19.50;99.90
17053;DHT22;8643;48.824;11.422;2022-08-19T07:47:58;19.50;99.90
17053;DHT22;8643;48.824;11.422;2022-08-19T07:50:27;19.50;99.90
17053;DHT22;8643;48.824;11.422;2022-08-19T07:52:56;19.50;99.90
17053;DHT22;8643;48.824;11.422;2022-08-19T07:55:25;19.50;99.90
17053;DHT22;8643;48.824;11.422;2022-08-19T07:58:11;19.50;99.90
17053;DHT22;8643;48.824;11.422;2022-08-19T08:00:42;19.60;99.90
17053;DHT22;8643;48.824;11.422;2022-08-19T08:03:11;19.60;99.90
17053;DHT22;8643;48.824;11.422;2022-08-19T08:05:41;19.60;99.90
17053;DHT22;8643;48.824;11.422;2022-08-19T08:08:26;19.70;99.90
17053;DHT22;8643;48.824;11.422;2022-08-19T08:11:15;19.70;99.90
17053;DHT22;8643;48.824;11.422;2022-08-19T08:13:48;21.00;99.90
17053;DHT22;8643;48.824;11.422;2022-08-19T08:16:30;19.90;99.90
17053;DHT22;8643;48.824;11.422;2022-08-19T08:19:06;20.00;99.90
17053;DHT22;8643;48.824;11.422;2022-08-19T08:21:46;18.80;99.90
17053;DHT22;8643;48.824;11.422;2022-08-19T08:24:16;20.20;99.90
17053;DHT22;8643;48.824;11.422;2022-08-19T08:26:44;20.10;99.90
17053;DHT22;8643;48.824;11.422;2022-08-19T08:29:24;20.00;99.90
17053;DHT22;8643;48.824;11.422;2022-08-19T08:32:01;20.00;99.90
17053;DHT22;8643;48.824;11.422;2022-08-19T08:34:40;19.80;99.90
17053;DHT22;8643;48.824;11.422;2022-08-19T08:37:09;20.00;99.90
17053;DHT22;8643;48.824;11.422;2022-08-19T08:39:37;19.80;99.90
17053;DHT22;8643;48.824;11.422;2022-08-19T08:42:09;20.00;99.90
17053;DHT22;8643;48.824;11.422;2022-08-19T08:44:55;20.10;99.90
17053;DHT22;8643;48.824;11.422;2022-08-19T08:47:31;20.40;99.90
17053;DHT22;8643;48.824;11.422;2022-08-19T08:50:10;20.30;99.90
17053;DHT22;8643;48.824;11.422;2022-08-19T08:52:48;20.00;99.90
17053;DHT22;8643;48.824;11.422;2022-08-19T08:55:23;20.40;99.90
17053;DHT22;8643;48.824;11.422;2022-08-19T08:58:04;20.50;99.90
17053;DHT22;8643;48.824;11.422;2022-08-19T09:00:45;20.60;99.90
17053;DHT22;8643;48.824;11.422;2022-08-19T09:03:18;20.60;99.90
17053;DHT22;8643;48.824;11.422;2022-08-19T09:05:56;20.70;99.90
17053;DHT22;8643;48.824;11.422;2022-08-19T09:08:37;20.90;99.90
17053;DHT22;8643;48.824;11.422;2022-08-19T09:11:16;21.10;99.90
17053;DHT22;8643;48.824;11.422;2022-08-19T09:14:16;21.20;99.90
17053;DHT22;8643;48.824;11.422;2022-08-19T09:17:13;21.30;99.90
17053;DHT22;8643;48.824;11.422;2022-08-19T09:19:53;21.40;99.90
17053;DHT22;8643;48.824;11.422;2022-08-19T09:22:23;21.60;99.90
17053;DHT22;8643;48.824;11.422;2022-08-19T09:24:54;21.60;99.90
17053;DHT22;8643;48.824;11.422;2022-08-19T09:27:25;21.60;99.90
17053;DHT22;8643;48.824;11.422;2022-08-19T09:30:17;21.70;99.90
17053;DHT22;8643;48.824;11.422;2022-08-19T09:32:50;21.60;99.90
17053;DHT22;8643;48.824;11.422;2022-08-19T09:35:21;22.80;99.90
17053;DHT22;8643;48.824;11.422;2022-08-19T09:37:51;21.50;99.90
17053;DHT22;8643;48.824;11.422;2022-08-19T09:40:25;21.60;99.90
17053;DHT22;8643;48.824;11.422;2022-08-19T09:42:57;21.70;99.90
17053;DHT22;8643;48.824;11.422;2022-08-19T09:45:35;21.50;99.90
17053;DHT22;8643;48.824;11.422;2022-08-19T09:48:05;21.60;99.90
17053;DHT22;8643;48.824;11.422;2022-08-19T09:50:35;21.40;99.90
17053;DHT22;8643;48.824;11.422;2022-08-19T09:53:17;21.40;99.90
17053;DHT22;8643;48.824;11.422;2022-08-19T09:55:46;21.20;99.90
17053;DHT22;8643;48.824;11.422;2022-08-19T09:58:14;21.10;99.90
17053;DHT22;8643;48.824;11.422;2022-08-19T10:00:42;21.00;99.90
17053;DHT22;8643;48.824;11.422;2022-08-19T10:03:18;20.90;99.90
17053;DHT22;8643;48.824;11.422;2022-08-19T10:05:51;20.70;99.90
17053;DHT22;8643;48.824;11.422;2022-08-19T10:08:23;20.80;99.90
17053;DHT22;8643;48.824;11.422;2022-08-19T10:10:55;20.80;99.90
17053;DHT22;8643;48.824;11.422;2022-08-19T10:13:26;20.70;99.90
17053;DHT22;8643;48.824;11.422;2022-08-19T10:16:03;20.70;99.90
17053;DHT22;8643;48.824;11.422;2022-08-19T10:18:35;20.60;99.90
17053;DHT22;8643;48.824;11.422;2022-08-19T10:21:11;20.50;99.90
17053;DHT22;8643;48.824;11.422;2022-08-19T10:23:43;20.50;99.90
17053;DHT22;8643;48.824;11.422;2022-08-19T10:26:17;20.50;99.90
17053;DHT22;8643;48.824;11.422;2022-08-19T10:28:47;20.30;99.90
17053;DHT22;8643;48.824;11.422;2022-08-19T10:31:25;20.20;99.90
17053;DHT22;8643;48.824;11.422;2022-08-19T10:34:16;20.10;99.90
17053;DHT22;8643;48.824;11.422;2022-08-19T10:36:55;19.90;99.90
17053;DHT22;8643;48.824;11.422;2022-08-19T10:39:27;20.90;99.90
17053;DHT22;8643;48.824;11.422;2022-08-19T10:41:58;19.60;99.90
17053;DHT22;8643;48.824;11.422;2022-08-19T10:44:27;19.50;99.90
17053;DHT22;8643;48.824;11.422;2022-08-19T10:46:59;19.50;99.90
17053;DHT22;8643;48.824;11.422;2022-08-19T10:49:29;19.50;99.90
17053;DHT22;8643;48.824;11.422;2022-08-19T10:51:58;19.40;99.90
17053;DHT22;8643;48.824;11.422;2022-08-19T10:54:47;19.40;99.90
17053;DHT22;8643;48.824;11.422;2022-08-19T10:57:34;19.60;99.90
17053;DHT22;8643;48.824;11.422;2022-08-19T11:00:24;19.50;99.90
17053;DHT22;8643;48.824;11.422;2022-08-19T11:02:53;19.50;99.90
17053;DHT22;8643;48.824;11.422;2022-08-19T11:05:23;19.50;99.90
17053;DHT22;8643;48.824;11.422;2022-08-19T11:07:52;19.40;99.90
17053;DHT22;8643;48.824;11.422;2022-08-19T11:10:20;20.20;99.90
17053;DHT22;8643;48.824;11.422;2022-08-19T11:12:50;19.40;99.90
17053;DHT22;8643;48.824;11.422;2022-08-19T11:15:21;19.40;99.90
17053;DHT22;8643;48.824;11.422;2022-08-19T11:17:51;19.30;99.90
17053;DHT22;8643;48.824;11.422;2022-08-19T11:20:22;19.30;99.90
17053;DHT22;8643;48.824;11.422;2022-08-19T11:22:52;19.30;99.90
17053;DHT22;8643;48.824;11.422;2022-08-19T11:25:21;19.40;99.90
17053;DHT22;8643;48.824;11.422;2022-08-19T11:27:49;19.50;99.90
17053;DHT22;8643;48.824;11.422;2022-08-19T11:32:47;19.50;99.90
17053;DHT22;8643;48.824;11.422;2022-08-19T11:35:16;19.40;99.90
17053;DHT22;8643;48.824;11.422;2022-08-19T11:37:48;19.30;99.90
17053;DHT22;8643;48.824;11.422;2022-08-19T11:40:16;19.20;99.90
17053;DHT22;8643;48.824;11.422;2022-08-19T11:45:23;19.10;99.90
17053;DHT22;8643;48.824;11.422;2022-08-19T11:47:52;19.00;99.90
17053;DHT22;8643;48.824;11.422;2022-08-19T11:50:20;18.80;99.90
17053;DHT22;8643;48.824;11.422;2022-08-19T11:52:53;19.00;99.90
17053;DHT22;8643;48.824;11.422;2022-08-19T11:55:23;19.00;99.90
17053;DHT22;8643;48.824;11.422;2022-08-19T11:57:51;19.00;99.90
17053;DHT22;8643;48.824;11.422;2022-08-19T12:02:48;19.00;99.90
17053;DHT22;8643;48.824;11.422;2022-08-19T12:05:17;19.00;99.90
17053;DHT22;8643;48.824;11.422;2022-08-19T12:10:15;19.00;99.90
17053;DHT22;8643;48.824;11.422;2022-08-19T12:12:46;19.00;99.90
17053;DHT22;8643;48.824;11.422;2022-08-19T12:15:25;19.00;99.90
17053;DHT22;8643;48.824;11.422;2022-08-19T12:18:03;19.00;99.90
17053;DHT22;8643;48.824;11.422;2022-08-19T12:20:34;19.00;99.90
17053;DHT22;8643;48.824;11.422;2022-08-19T12:23:04;19.00;99.90
17053;DHT22;8643;48.824;11.422;2022-08-19T12:25:35;19.10;99.90
17053;DHT22;8643;48.824;11.422;2022-08-19T12:28:04;19.20;99.90
17053;DHT22;8643;48.824;11.422;2022-08-19T12:30:32;19.20;99.90
17053;DHT22;8643;48.824;11.422;2022-08-19T12:33:00;19.20;99.90
17053;DHT22;8643;48.824;11.422;2022-08-19T12:35:29;19.20;99.90
17053;DHT22;8643;48.824;11.422;2022-08-19T12:37:57;19.30;99.90
17053;DHT22;8643;48.824;11.422;2022-08-19T12:40:26;19.30;99.90
17053;DHT22;8643;48.824;11.422;2022-08-19T12:42:56;19.20;99.90
17053;DHT22;8643;48.824;11.422;2022-08-19T12:45:25;19.30;99.90
17053;DHT22;8643;48.824;11.422;2022-08-19T12:47:53;19.40;99.90
17053;DHT22;8643;48.824;11.422;2022-08-19T12:50:22;19.40;99.90
17053;DHT22;8643;48.824;11.422;2022-08-19T12:52:51;19.50;99.90
17053;DHT22;8643;48.824;11.422;2022-08-19T12:55:19;19.40;99.90
17053;DHT22;8643;48.824;11.422;2022-08-19T12:57:47;19.40;99.90
17053;DHT22;8643;48.824;11.422;2022-08-19T13:00:20;19.40;99.90
17053;DHT22;8643;48.824;11.422;2022-08-19T13:02:51;19.40;99.90
17053;DHT22;8643;48.824;11.422;2022-08-19T13:05:22;19.40;99.90
17053;DHT22;8643;48.824;11.422;2022-08-19T13:07:53;19.40;99.90
17053;DHT22;8643;48.824;11.422;2022-08-19T13:10:25;19.40;99.90
17053;DHT22;8643;48.824;11.422;2022-08-19T13:13:03;19.40;99.90
17053;DHT22;8643;48.824;11.422;2022-08-19T13:15:35;19.40;99.90
17053;DHT22;8643;48.824;11.422;2022-08-19T13:18:07;19.30;99.90
17053;DHT22;8643;48.824;11.422;2022-08-19T13:20:38;19.30;99.90
17053;DHT22;8643;48.824;11.422;2022-08-19T13:23:18;19.20;99.90
17053;DHT22;8643;48.824;11.422;2022-08-19T13:25:56;19.20;99.90
17053;DHT22;8643;48.824;11.422;2022-08-19T13:28:25;19.10;99.90
17053;DHT22;8643;48.824;11.422;2022-08-19T13:31:16;19.20;99.90
17053;DHT22;8643;48.824;11.422;2022-08-19T13:34:03;19.20;99.90
17053;DHT22;8643;48.824;11.422;2022-08-19T13:36:32;19.20;99.90
17053;DHT22;8643;48.824;11.422;2022-08-19T13:39:00;19.20;99.90
17053;DHT22;8643;48.824;11.422;2022-08-19T13:41:29;19.10;99.90
17053;DHT22;8643;48.824;11.422;2022-08-19T13:43:58;19.10;99.90
17053;DHT22;8643;48.824;11.422;2022-08-19T13:46:28;19.10;99.90
17053;DHT22;8643;48.824;11.422;2022-08-19T13:48:56;19.10;99.90
17053;DHT22;8643;48.824;11.422;2022-08-19T13:51:24;19.10;99.90
17053;DHT22;8643;48.824;11.422;2022-08-19T13:53:53;19.00;99.90
17053;DHT22;8643;48.824;11.422;2022-08-19T13:56:22;19.00;99.90
17053;DHT22;8643;48.824;11.422;2022-08-19T13:58:52;19.00;99.90
17053;DHT22;8643;48.824;11.422;2022-08-19T14:01:25;19.00;99.90
17053;DHT22;8643;48.824;11.422;2022-08-19T14:03:55;19.00;99.90
17053;DHT22;8643;48.824;11.422;2022-08-19T14:06:24;19.10;99.90
17053;DHT22;8643;48.824;11.422;2022-08-19T14:08:52;18.80;99.90
17053;DHT22;8643;48.824;11.422;2022-08-19T14:11:20;19.00;99.90
17053;DHT22;8643;48.824;11.422;2022-08-19T14:13:49;19.00;99.90
17053;DHT22;8643;48.824;11.422;2022-08-19T14:16:18;19.00;99.90
17053;DHT22;8643;48.824;11.422;2022-08-19T14:18:48;19.00;99.90
17053;DHT22;8643;48.824;11.422;2022-08-19T14:21:20;19.00;99.90
17053;DHT22;8643;48.824;11.422;2022-08-19T14:23:51;19.00;99.90
17053;DHT22;8643;48.824;11.422;2022-08-19T14:26:21;19.50;99.90
17053;DHT22;8643;48.824;11.422;2022-08-19T14:28:50;19.00;99.90
17053;DHT22;8643;48.824;11.422;2022-08-19T14:31:19;19.00;99.90
17053;DHT22;8643;48.824;11.422;2022-08-19T14:33:56;19.00;99.90
17053;DHT22;8643;48.824;11.422;2022-08-19T14:36:26;19.00;99.90
17053;DHT22;8643;48.824;11.422;2022-08-19T14:38:54;19.00;99.90
17053;DHT22;8643;48.824;11.422;2022-08-19T14:41:24;19.00;99.90
17053;DHT22;8643;48.824;11.422;2022-08-19T14:43:54;18.90;99.90
17053;DHT22;8643;48.824;11.422;2022-08-19T14:46:24;19.00;99.90
17053;DHT22;8643;48.824;11.422;2022-08-19T14:51:27;19.00;99.90
17053;DHT22;8643;48.824;11.422;2022-08-19T14:53:55;19.00;99.90
17053;DHT22;8643;48.824;11.422;2022-08-19T14:56:26;19.00;99.90
17053;DHT22;8643;48.824;11.422;2022-08-19T14:58:57;19.00;99.90
17053;DHT22;8643;48.824;11.422;2022-08-19T15:01:27;19.00;99.90
17053;DHT22;8643;48.824;11.422;2022-08-19T15:03:56;19.00;99.90
17053;DHT22;8643;48.824;11.422;2022-08-19T15:06:26;19.10;99.90
17053;DHT22;8643;48.824;11.422;2022-08-19T15:08:56;19.10;99.90
17053;DHT22;8643;48.824;11.422;2022-08-19T15:11:30;19.10;99.90
17053;DHT22;8643;48.824;11.422;2022-08-19T15:13:59;19.10;99.90
17053;DHT22;8643;48.824;11.422;2022-08-19T15:16:28;19.20;99.90
17053;DHT22;8643;48.824;11.422;2022-08-19T15:18:58;19.20;99.90
17053;DHT22;8643;48.824;11.422;2022-08-19T15:21:29;19.30;99.90
17053;DHT22;8643;48.824;11.422;2022-08-19T15:23:58;19.30;99.90
17053;DHT22;8643;48.824;11.422;2022-08-19T15:26:29;19.20;99.90
17053;DHT22;8643;48.824;11.422;2022-08-19T15:28:59;19.30;99.90
17053;DHT22;8643;48.824;11.422;2022-08-19T15:31:28;19.30;99.90
17053;DHT22;8643;48.824;11.422;2022-08-19T15:34:02;18.20;99.90
17053;DHT22;8643;48.824;11.422;2022-08-19T15:36:34;19.30;99.90
17053;DHT22;8643;48.824;11.422;2022-08-19T15:39:03;19.30;99.90
17053;DHT22;8643;48.824;11.422;2022-08-19T15:41:33;19.30;99.90
17053;DHT22;8643;48.824;11.422;2022-08-19T15:44:04;19.30;99.90
17053;DHT22;8643;48.824;11.422;2022-08-19T15:46:38;19.20;99.90
17053;DHT22;8643;48.824;11.422;2022-08-19T15:49:08;19.20;99.90
17053;DHT22;8643;48.824;11.422;2022-08-19T15:51:42;19.20;99.90
17053;DHT22;8643;48.824;11.422;2022-08-19T15:54:15;19.30;99.90
17053;DHT22;8643;48.824;11.422;2022-08-19T15:56:48;19.20;99.90
17053;DHT22;8643;48.824;11.422;2022-08-19T15:59:35;19.20;99.90
17053;DHT22;8643;48.824;11.422;2022-08-19T16:02:30;19.30;99.90
17053;DHT22;8643;48.824;11.422;2022-08-19T16:05:23;19.30;99.90
17053;DHT22;8643;48.824;11.422;2022-08-19T16:08:12;19.10;99.90
17053;DHT22;8643;48.824;11.422;2022-08-19T16:10:41;19.20;99.90
17053;DHT22;8643;48.824;11.422;2022-08-19T16:13:09;19.30;99.90
17053;DHT22;8643;48.824;11.422;2022-08-19T16:15:37;19.30;99.90
17053;DHT22;8643;48.824;11.422;2022-08-19T16:18:10;19.20;99.90
17053;DHT22;8643;48.824;11.422;2022-08-19T16:20:38;19.20;99.90